Detall de PIREP

Printer-friendly versionPDF version

[2013/01/08 14:20:00]
Flight IATA:CT1005
Pilot Number:011
Company ICAO:CAT
Aircraft Type:F28/A
PAX:85
Departing Airport: LGPZ
Destination Airport: LMML
Alternate Airport:LICJ
Online: VATSIM
Route:MALED UA14 KRK UM600 LORED UP624 GZO
Flight Level:F310
No Slew and time accel
No pause
Crash detect
Detect pilot in Cockpit between each 30 and 45 minutes
14:20 Zero fuel Weight: 59656 Lbs, Fuel Weight: 11183 Lbs
14:20 VATSIM:LGPZ 081350Z 00000KT CAVOK 07/M13 Q1021 NOSIG
14:20 VATSIM:LMML 081345Z 34007KT 310V010 9999 FEW035 17/08 Q1025 NOSIG
14:22 Parking Brakes off
14:35 Take-off
14:35 Take off Weight: 70270 Lbs
14:35 Wind: 341º @ 000 Knots Heading: 250º
14:35 POS N38º 56´ 01´´ E020º 46´ 10´´
14:35 Flaps:3 at 147 Knots
14:35 Gear Up: 149 Knots
14:36 Flaps:4 at 218 Knots
14:36 Flaps:5 at 219 Knots
14:37 Flaps:2 at 177 Knots
14:37 Flaps:0 at 177 Knots
14:50 Wind:345º@006 Knots Heading: 229º Ground Speed: 351 Knots Altitude 28484 ft
14:52 TOC
14:52 Fuel Weight: 8298 Lb
14:55 TOD
14:55 Fuel Weight: 8010 Lb
15:01 TOC
15:01 Fuel Weight: 7648 Lb
15:05 Wind:356º@030 Knots Heading: 231º Ground Speed: 457 Knots Altitude 31279 ft
15:19 TOD
15:19 Fuel Weight: 6244 Lb
15:20 Wind:030º@019 Knots Heading: 230º Ground Speed: 460 Knots Altitude 30990 ft
15:35 Wind:319º@017 Knots Heading: 251º Ground Speed: 261 Knots Altitude 6650 ft
15:35 Flaps:1 at 248 Knots
15:35 Flaps:2 at 238 Knots
15:36 Flaps:3 at 202 Knots
15:36 Gear Down: 201 Knots
15:37 Flaps:4 at 163 Knots
15:38 Flaps:5 at 147 Knots
15:42 TouchDown:Rate -276 ft/min Speed: 100 Knots
15:42 Flaps:0 at 37 Knots
15:42 VATSIM:LMML 081515Z 32008KT CAVOK 15/07 Q1025 NOSIG
15:42 Land
15:42 Wind:319º@008 Knots
15:42 Heading: 140º
15:42 Flight Duration: 01:07
15:42 Landing Weight: 65001 Lbs
15:42 POS N35º 50´ 53´´ E014º 29´ 28´´
15:45 Parking brakes on
15:45 Block to Block Duration: 01:23
15:45 Final Fuel: 5227 Lbls
15:45 Spent Fuel: 5956 Lbls
15:45 Flight Length: 188 NM
15:45 TOD Land Length: 59 NM

Exportar CSV

Powered by Drupal - Modified by Danger4k